sensor_id;sensor_type;location;lat;lon;timestamp;temperature;humidity
46890;DHT22;32625;51.080;16.970;2023-05-10T00:00:39;10.00;93.40
46890;DHT22;32625;51.080;16.970;2023-05-10T00:03:06;10.00;93.50
46890;DHT22;32625;51.080;16.970;2023-05-10T00:05:34;9.90;91.70
46890;DHT22;32625;51.080;16.970;2023-05-10T00:08:01;9.90;93.20
46890;DHT22;32625;51.080;16.970;2023-05-10T00:10:28;9.90;93.80
46890;DHT22;32625;51.080;16.970;2023-05-10T00:12:55;9.90;93.80
46890;DHT22;32625;51.080;16.970;2023-05-10T00:15:22;9.80;94.20
46890;DHT22;32625;51.080;16.970;2023-05-10T00:17:50;9.80;93.90
46890;DHT22;32625;51.080;16.970;2023-05-10T00:20:17;9.80;93.60
46890;DHT22;32625;51.080;16.970;2023-05-10T00:22:44;9.70;94.30
46890;DHT22;32625;51.080;16.970;2023-05-10T00:25:12;9.70;95.00
46890;DHT22;32625;51.080;16.970;2023-05-10T00:27:39;9.60;94.50
46890;DHT22;32625;51.080;16.970;2023-05-10T00:30:07;9.60;95.40
46890;DHT22;32625;51.080;16.970;2023-05-10T00:32:35;9.60;95.60
46890;DHT22;32625;51.080;16.970;2023-05-10T00:35:02;9.50;95.70
46890;DHT22;32625;51.080;16.970;2023-05-10T00:37:29;9.50;96.00
46890;DHT22;32625;51.080;16.970;2023-05-10T00:39:56;9.50;96.50
46890;DHT22;32625;51.080;16.970;2023-05-10T00:42:23;9.50;96.40
46890;DHT22;32625;51.080;16.970;2023-05-10T00:44:53;9.50;96.80
46890;DHT22;32625;51.080;16.970;2023-05-10T00:47:20;9.50;96.80
46890;DHT22;32625;51.080;16.970;2023-05-10T00:49:47;9.40;97.80
46890;DHT22;32625;51.080;16.970;2023-05-10T00:52:14;9.40;97.90
46890;DHT22;32625;51.080;16.970;2023-05-10T00:54:42;9.40;96.80
46890;DHT22;32625;51.080;16.970;2023-05-10T00:57:10;9.40;96.90
46890;DHT22;32625;51.080;16.970;2023-05-10T00:59:37;9.40;98.00
46890;DHT22;32625;51.080;16.970;2023-05-10T01:02:05;9.30;98.00
46890;DHT22;32625;51.080;16.970;2023-05-10T01:04:33;9.30;98.20
46890;DHT22;32625;51.080;16.970;2023-05-10T01:07:02;9.20;98.30
46890;DHT22;32625;51.080;16.970;2023-05-10T01:09:29;9.20;99.30
46890;DHT22;32625;51.080;16.970;2023-05-10T01:11:57;9.20;99.20
46890;DHT22;32625;51.080;16.970;2023-05-10T01:14:25;9.20;99.50
46890;DHT22;32625;51.080;16.970;2023-05-10T01:16:53;9.20;99.40
46890;DHT22;32625;51.080;16.970;2023-05-10T01:19:28;9.20;99.90
46890;DHT22;32625;51.080;16.970;2023-05-10T01:22:00;9.10;99.90
46890;DHT22;32625;51.080;16.970;2023-05-10T01:24:59;9.10;99.90
46890;DHT22;32625;51.080;16.970;2023-05-10T01:31:02;8.90;99.90
46890;DHT22;32625;51.080;16.970;2023-05-10T01:36:05;8.90;99.90
46890;DHT22;32625;51.080;16.970;2023-05-10T01:38:47;8.90;99.90
46890;DHT22;32625;51.080;16.970;2023-05-10T01:44:24;8.80;99.90
46890;DHT22;32625;51.080;16.970;2023-05-10T01:47:04;8.80;99.90
46890;DHT22;32625;51.080;16.970;2023-05-10T01:49:39;8.70;99.90
46890;DHT22;32625;51.080;16.970;2023-05-10T01:52:11;8.70;99.90
46890;DHT22;32625;51.080;16.970;2023-05-10T01:54:44;8.70;99.90
46890;DHT22;32625;51.080;16.970;2023-05-10T01:57:13;8.70;99.90
46890;DHT22;32625;51.080;16.970;2023-05-10T01:59:45;8.70;99.90
46890;DHT22;32625;51.080;16.970;2023-05-10T02:02:15;8.60;99.90
46890;DHT22;32625;51.080;16.970;2023-05-10T02:04:47;8.50;99.90
46890;DHT22;32625;51.080;16.970;2023-05-10T02:07:16;8.60;99.90
46890;DHT22;32625;51.080;16.970;2023-05-10T02:09:45;8.60;99.90
46890;DHT22;32625;51.080;16.970;2023-05-10T02:12:16;8.60;99.90
46890;DHT22;32625;51.080;16.970;2023-05-10T02:14:45;8.60;99.90
46890;DHT22;32625;51.080;16.970;2023-05-10T02:17:13;8.60;99.90
46890;DHT22;32625;51.080;16.970;2023-05-10T02:19:41;8.50;99.90
46890;DHT22;32625;51.080;16.970;2023-05-10T02:22:10;8.60;99.90
46890;DHT22;32625;51.080;16.970;2023-05-10T02:24:38;8.50;99.90
46890;DHT22;32625;51.080;16.970;2023-05-10T02:27:07;8.50;99.90
46890;DHT22;32625;51.080;16.970;2023-05-10T02:29:37;8.50;99.90
46890;DHT22;32625;51.080;16.970;2023-05-10T02:32:05;8.40;99.90
46890;DHT22;32625;51.080;16.970;2023-05-10T02:34:33;8.50;99.90
46890;DHT22;32625;51.080;16.970;2023-05-10T02:37:02;8.50;99.90
46890;DHT22;32625;51.080;16.970;2023-05-10T02:39:32;8.50;99.90
46890;DHT22;32625;51.080;16.970;2023-05-10T02:42:00;8.40;99.90
46890;DHT22;32625;51.080;16.970;2023-05-10T02:44:29;8.30;99.90
46890;DHT22;32625;51.080;16.970;2023-05-10T02:46:58;8.30;99.90
46890;DHT22;32625;51.080;16.970;2023-05-10T02:49:25;8.30;99.90
46890;DHT22;32625;51.080;16.970;2023-05-10T02:51:57;8.30;99.90
46890;DHT22;32625;51.080;16.970;2023-05-10T02:54:30;8.30;99.90
46890;DHT22;32625;51.080;16.970;2023-05-10T02:57:27;8.30;99.90
46890;DHT22;32625;51.080;16.970;2023-05-10T02:59:55;8.20;99.90
46890;DHT22;32625;51.080;16.970;2023-05-10T03:02:22;8.20;99.90
46890;DHT22;32625;51.080;16.970;2023-05-10T03:04:49;8.20;99.90
46890;DHT22;32625;51.080;16.970;2023-05-10T03:07:17;8.20;99.90
46890;DHT22;32625;51.080;16.970;2023-05-10T03:09:49;8.20;99.90
46890;DHT22;32625;51.080;16.970;2023-05-10T03:12:36;8.20;99.90
46890;DHT22;32625;51.080;16.970;2023-05-10T03:18:20;8.20;99.90
46890;DHT22;32625;51.080;16.970;2023-05-10T03:20:51;8.20;99.90
46890;DHT22;32625;51.080;16.970;2023-05-10T03:23:41;8.20;99.90
46890;DHT22;32625;51.080;16.970;2023-05-10T03:26:23;8.20;99.90
46890;DHT22;32625;51.080;16.970;2023-05-10T03:28:52;8.10;99.90
46890;DHT22;32625;51.080;16.970;2023-05-10T03:31:20;8.20;99.90
46890;DHT22;32625;51.080;16.970;2023-05-10T03:33:49;8.10;99.90
46890;DHT22;32625;51.080;16.970;2023-05-10T03:36:22;8.10;99.90
46890;DHT22;32625;51.080;16.970;2023-05-10T03:38:49;8.00;99.90
46890;DHT22;32625;51.080;16.970;2023-05-10T03:41:17;8.00;99.90
46890;DHT22;32625;51.080;16.970;2023-05-10T03:43:44;8.10;99.90
46890;DHT22;32625;51.080;16.970;2023-05-10T03:46:11;8.10;99.90
46890;DHT22;32625;51.080;16.970;2023-05-10T03:48:38;8.10;99.90
46890;DHT22;32625;51.080;16.970;2023-05-10T03:51:06;8.20;99.90
46890;DHT22;32625;51.080;16.970;2023-05-10T03:53:33;8.20;99.90
46890;DHT22;32625;51.080;16.970;2023-05-10T03:56:01;8.20;99.90
46890;DHT22;32625;51.080;16.970;2023-05-10T03:58:28;8.20;99.90
46890;DHT22;32625;51.080;16.970;2023-05-10T04:00:55;8.20;99.90
46890;DHT22;32625;51.080;16.970;2023-05-10T04:03:22;8.20;99.90
46890;DHT22;32625;51.080;16.970;2023-05-10T04:05:59;8.30;99.90
46890;DHT22;32625;51.080;16.970;2023-05-10T04:08:26;8.30;99.90
46890;DHT22;32625;51.080;16.970;2023-05-10T04:13:34;8.30;99.90
46890;DHT22;32625;51.080;16.970;2023-05-10T04:16:02;8.30;99.90
46890;DHT22;32625;51.080;16.970;2023-05-10T04:18:29;8.30;99.90
46890;DHT22;32625;51.080;16.970;2023-05-10T04:20:56;8.40;99.90
46890;DHT22;32625;51.080;16.970;2023-05-10T04:23:23;8.40;99.90
46890;DHT22;32625;51.080;16.970;2023-05-10T04:25:51;8.40;99.90
46890;DHT22;32625;51.080;16.970;2023-05-10T04:28:18;8.40;99.90
46890;DHT22;32625;51.080;16.970;2023-05-10T04:30:45;8.50;99.90
46890;DHT22;32625;51.080;16.970;2023-05-10T04:33:12;8.60;99.90
46890;DHT22;32625;51.080;16.970;2023-05-10T04:35:41;8.50;99.90
46890;DHT22;32625;51.080;16.970;2023-05-10T04:38:08;8.60;99.90
46890;DHT22;32625;51.080;16.970;2023-05-10T04:40:35;8.60;99.90
46890;DHT22;32625;51.080;16.970;2023-05-10T04:43:02;8.70;99.90
46890;DHT22;32625;51.080;16.970;2023-05-10T04:45:29;8.70;99.90
46890;DHT22;32625;51.080;16.970;2023-05-10T04:47:56;8.80;99.90
46890;DHT22;32625;51.080;16.970;2023-05-10T04:50:24;8.90;99.90
46890;DHT22;32625;51.080;16.970;2023-05-10T04:52:51;8.90;99.90
46890;DHT22;32625;51.080;16.970;2023-05-10T04:55:19;8.90;99.90
46890;DHT22;32625;51.080;16.970;2023-05-10T04:57:46;8.90;99.90
46890;DHT22;32625;51.080;16.970;2023-05-10T05:00:13;9.00;99.90
46890;DHT22;32625;51.080;16.970;2023-05-10T05:02:44;9.00;99.90
46890;DHT22;32625;51.080;16.970;2023-05-10T05:05:12;9.10;99.90
46890;DHT22;32625;51.080;16.970;2023-05-10T05:07:40;9.10;99.90
46890;DHT22;32625;51.080;16.970;2023-05-10T05:10:07;9.20;99.90
46890;DHT22;32625;51.080;16.970;2023-05-10T05:12:35;9.20;99.90
46890;DHT22;32625;51.080;16.970;2023-05-10T05:15:02;9.30;99.90
46890;DHT22;32625;51.080;16.970;2023-05-10T05:17:30;9.30;99.90
46890;DHT22;32625;51.080;16.970;2023-05-10T05:19:58;9.30;99.90
46890;DHT22;32625;51.080;16.970;2023-05-10T05:22:25;9.40;99.90
46890;DHT22;32625;51.080;16.970;2023-05-10T05:24:56;9.50;99.90
46890;DHT22;32625;51.080;16.970;2023-05-10T05:27:25;9.50;99.90
46890;DHT22;32625;51.080;16.970;2023-05-10T05:29:55;9.60;99.90
46890;DHT22;32625;51.080;16.970;2023-05-10T05:32:23;9.60;99.90
46890;DHT22;32625;51.080;16.970;2023-05-10T05:34:51;9.70;99.90
46890;DHT22;32625;51.080;16.970;2023-05-10T05:37:20;9.80;99.90
46890;DHT22;32625;51.080;16.970;2023-05-10T05:39:48;9.80;99.90
46890;DHT22;32625;51.080;16.970;2023-05-10T05:42:15;9.90;99.90
46890;DHT22;32625;51.080;16.970;2023-05-10T05:44:44;9.90;99.90
46890;DHT22;32625;51.080;16.970;2023-05-10T05:47:11;10.00;99.90
46890;DHT22;32625;51.080;16.970;2023-05-10T05:49:39;10.10;99.90
46890;DHT22;32625;51.080;16.970;2023-05-10T05:52:06;10.10;99.90
46890;DHT22;32625;51.080;16.970;2023-05-10T05:54:33;10.20;99.90
46890;DHT22;32625;51.080;16.970;2023-05-10T05:57:00;10.30;99.90
46890;DHT22;32625;51.080;16.970;2023-05-10T05:59:28;10.40;99.90
46890;DHT22;32625;51.080;16.970;2023-05-10T06:01:55;10.40;99.90
46890;DHT22;32625;51.080;16.970;2023-05-10T06:04:22;10.50;99.90
46890;DHT22;32625;51.080;16.970;2023-05-10T06:06:49;10.60;99.90
46890;DHT22;32625;51.080;16.970;2023-05-10T06:09:16;10.70;99.90
46890;DHT22;32625;51.080;16.970;2023-05-10T06:11:43;10.80;99.90
46890;DHT22;32625;51.080;16.970;2023-05-10T06:14:11;10.90;99.90
46890;DHT22;32625;51.080;16.970;2023-05-10T06:16:38;10.90;99.90
46890;DHT22;32625;51.080;16.970;2023-05-10T06:19:05;11.00;99.90
46890;DHT22;32625;51.080;16.970;2023-05-10T06:21:32;11.10;99.90
46890;DHT22;32625;51.080;16.970;2023-05-10T06:23:59;11.30;98.20
46890;DHT22;32625;51.080;16.970;2023-05-10T06:26:26;11.30;98.10
46890;DHT22;32625;51.080;16.970;2023-05-10T06:28:54;11.30;98.60
46890;DHT22;32625;51.080;16.970;2023-05-10T06:31:21;11.50;99.70
46890;DHT22;32625;51.080;16.970;2023-05-10T06:33:48;11.50;99.50
46890;DHT22;32625;51.080;16.970;2023-05-10T06:36:15;11.70;98.80
46890;DHT22;32625;51.080;16.970;2023-05-10T06:38:42;11.70;98.20
46890;DHT22;32625;51.080;16.970;2023-05-10T06:41:09;11.80;98.40
46890;DHT22;32625;51.080;16.970;2023-05-10T06:43:37;11.90;98.30
46890;DHT22;32625;51.080;16.970;2023-05-10T06:46:07;11.90;99.20
46890;DHT22;32625;51.080;16.970;2023-05-10T06:48:34;12.10;96.90
46890;DHT22;32625;51.080;16.970;2023-05-10T06:51:01;12.20;97.00
46890;DHT22;32625;51.080;16.970;2023-05-10T06:53:28;12.30;95.70
46890;DHT22;32625;51.080;16.970;2023-05-10T06:55:55;12.40;95.20
46890;DHT22;32625;51.080;16.970;2023-05-10T06:58:22;12.50;95.10
46890;DHT22;32625;51.080;16.970;2023-05-10T07:00:50;12.60;94.50
46890;DHT22;32625;51.080;16.970;2023-05-10T07:03:17;12.70;93.70
46890;DHT22;32625;51.080;16.970;2023-05-10T07:05:44;12.80;93.10
46890;DHT22;32625;51.080;16.970;2023-05-10T07:08:11;12.90;93.60
46890;DHT22;32625;51.080;16.970;2023-05-10T07:10:40;13.00;92.40
46890;DHT22;32625;51.080;16.970;2023-05-10T07:13:07;13.10;92.10
46890;DHT22;32625;51.080;16.970;2023-05-10T07:15:34;13.20;92.30
46890;DHT22;32625;51.080;16.970;2023-05-10T07:18:01;13.20;93.00
46890;DHT22;32625;51.080;16.970;2023-05-10T07:20:29;13.40;92.20
46890;DHT22;32625;51.080;16.970;2023-05-10T07:22:56;13.40;91.90
46890;DHT22;32625;51.080;16.970;2023-05-10T07:25:23;13.50;90.90
46890;DHT22;32625;51.080;16.970;2023-05-10T07:27:50;13.60;91.00
46890;DHT22;32625;51.080;16.970;2023-05-10T07:30:18;13.80;89.70
46890;DHT22;32625;51.080;16.970;2023-05-10T07:32:45;13.80;88.10
46890;DHT22;32625;51.080;16.970;2023-05-10T07:35:12;13.90;88.40
46890;DHT22;32625;51.080;16.970;2023-05-10T07:37:40;14.00;89.80
46890;DHT22;32625;51.080;16.970;2023-05-10T07:40:07;14.10;89.60
46890;DHT22;32625;51.080;16.970;2023-05-10T07:42:34;14.20;90.30
46890;DHT22;32625;51.080;16.970;2023-05-10T07:45:01;14.30;87.60
46890;DHT22;32625;51.080;16.970;2023-05-10T07:47:29;14.40;85.20
46890;DHT22;32625;51.080;16.970;2023-05-10T07:49:56;14.50;86.30
46890;DHT22;32625;51.080;16.970;2023-05-10T07:52:23;14.70;85.80
46890;DHT22;32625;51.080;16.970;2023-05-10T07:54:50;14.70;84.60
46890;DHT22;32625;51.080;16.970;2023-05-10T07:57:18;14.80;84.70
46890;DHT22;32625;51.080;16.970;2023-05-10T07:59:48;14.90;83.60
46890;DHT22;32625;51.080;16.970;2023-05-10T08:02:15;15.10;84.70
46890;DHT22;32625;51.080;16.970;2023-05-10T08:04:42;15.10;84.20
46890;DHT22;32625;51.080;16.970;2023-05-10T08:07:09;15.20;83.90
46890;DHT22;32625;51.080;16.970;2023-05-10T08:09:37;15.30;84.90
46890;DHT22;32625;51.080;16.970;2023-05-10T08:12:05;15.40;83.50
46890;DHT22;32625;51.080;16.970;2023-05-10T08:14:32;15.40;80.30
46890;DHT22;32625;51.080;16.970;2023-05-10T08:16:59;15.50;80.60
46890;DHT22;32625;51.080;16.970;2023-05-10T08:19:26;15.40;81.90
46890;DHT22;32625;51.080;16.970;2023-05-10T08:21:53;15.60;81.60
46890;DHT22;32625;51.080;16.970;2023-05-10T08:24:22;15.70;80.30
46890;DHT22;32625;51.080;16.970;2023-05-10T08:26:49;15.80;80.20
46890;DHT22;32625;51.080;16.970;2023-05-10T08:29:16;16.00;79.80
46890;DHT22;32625;51.080;16.970;2023-05-10T08:31:44;16.00;77.40
46890;DHT22;32625;51.080;16.970;2023-05-10T08:34:12;16.10;78.10
46890;DHT22;32625;51.080;16.970;2023-05-10T08:36:39;16.20;77.70
46890;DHT22;32625;51.080;16.970;2023-05-10T08:39:06;16.20;78.20
46890;DHT22;32625;51.080;16.970;2023-05-10T08:41:46;16.40;75.80
46890;DHT22;32625;51.080;16.970;2023-05-10T08:44:15;16.30;76.50
46890;DHT22;32625;51.080;16.970;2023-05-10T08:46:46;16.40;77.60
46890;DHT22;32625;51.080;16.970;2023-05-10T08:49:17;16.40;76.60
46890;DHT22;32625;51.080;16.970;2023-05-10T08:51:51;16.40;77.60
46890;DHT22;32625;51.080;16.970;2023-05-10T08:54:19;16.50;75.40
46890;DHT22;32625;51.080;16.970;2023-05-10T08:56:46;16.60;74.80
46890;DHT22;32625;51.080;16.970;2023-05-10T08:59:15;16.70;74.90
46890;DHT22;32625;51.080;16.970;2023-05-10T09:01:44;16.70;74.60
46890;DHT22;32625;51.080;16.970;2023-05-10T09:04:13;16.80;74.80
46890;DHT22;32625;51.080;16.970;2023-05-10T09:06:40;16.80;74.60
46890;DHT22;32625;51.080;16.970;2023-05-10T09:09:08;16.90;75.10
46890;DHT22;32625;51.080;16.970;2023-05-10T09:11:35;17.00;75.10
46890;DHT22;32625;51.080;16.970;2023-05-10T09:14:03;17.10;74.40
46890;DHT22;32625;51.080;16.970;2023-05-10T09:16:30;17.20;73.30
46890;DHT22;32625;51.080;16.970;2023-05-10T09:18:57;17.30;72.60
46890;DHT22;32625;51.080;16.970;2023-05-10T09:21:25;17.40;72.30
46890;DHT22;32625;51.080;16.970;2023-05-10T09:23:52;17.30;71.80
46890;DHT22;32625;51.080;16.970;2023-05-10T09:26:24;17.40;73.30
46890;DHT22;32625;51.080;16.970;2023-05-10T09:28:56;17.30;72.70
46890;DHT22;32625;51.080;16.970;2023-05-10T09:31:23;17.40;73.50
46890;DHT22;32625;51.080;16.970;2023-05-10T09:33:53;17.60;73.30
46890;DHT22;32625;51.080;16.970;2023-05-10T09:36:20;17.60;72.30
46890;DHT22;32625;51.080;16.970;2023-05-10T09:38:49;17.70;73.20
46890;DHT22;32625;51.080;16.970;2023-05-10T09:41:20;17.80;71.10
46890;DHT22;32625;51.080;16.970;2023-05-10T09:43:48;17.80;72.40
46890;DHT22;32625;51.080;16.970;2023-05-10T09:46:16;17.80;71.80
46890;DHT22;32625;51.080;16.970;2023-05-10T09:48:45;18.00;70.40
46890;DHT22;32625;51.080;16.970;2023-05-10T09:51:24;18.00;69.20
46890;DHT22;32625;51.080;16.970;2023-05-10T09:54:10;18.10;68.60
46890;DHT22;32625;51.080;16.970;2023-05-10T09:56:38;18.10;71.20
46890;DHT22;32625;51.080;16.970;2023-05-10T09:59:11;18.10;71.30
46890;DHT22;32625;51.080;16.970;2023-05-10T10:01:39;18.10;70.00
46890;DHT22;32625;51.080;16.970;2023-05-10T10:04:09;18.10;68.90
46890;DHT22;32625;51.080;16.970;2023-05-10T10:06:40;18.40;67.10
46890;DHT22;32625;51.080;16.970;2023-05-10T10:09:09;18.30;66.90
46890;DHT22;32625;51.080;16.970;2023-05-10T10:11:38;18.30;67.20
46890;DHT22;32625;51.080;16.970;2023-05-10T10:14:05;18.40;66.30
46890;DHT22;32625;51.080;16.970;2023-05-10T10:16:33;18.50;66.20
46890;DHT22;32625;51.080;16.970;2023-05-10T10:19:00;18.60;64.00
46890;DHT22;32625;51.080;16.970;2023-05-10T10:21:28;18.70;64.00
46890;DHT22;32625;51.080;16.970;2023-05-10T10:23:55;18.70;64.40
46890;DHT22;32625;51.080;16.970;2023-05-10T10:26:23;18.70;64.50
46890;DHT22;32625;51.080;16.970;2023-05-10T10:32:00;19.00;62.40
46890;DHT22;32625;51.080;16.970;2023-05-10T10:34:32;18.90;63.80
46890;DHT22;32625;51.080;16.970;2023-05-10T10:37:04;19.10;64.10
46890;DHT22;32625;51.080;16.970;2023-05-10T10:39:32;19.10;63.20
46890;DHT22;32625;51.080;16.970;2023-05-10T10:41:59;18.50;62.00
46890;DHT22;32625;51.080;16.970;2023-05-10T10:49:52;19.30;63.20
46890;DHT22;32625;51.080;16.970;2023-05-10T10:52:35;19.20;61.60
46890;DHT22;32625;51.080;16.970;2023-05-10T10:55:08;19.30;61.80
46890;DHT22;32625;51.080;16.970;2023-05-10T11:00:26;19.20;60.10
46890;DHT22;32625;51.080;16.970;2023-05-10T11:05:43;19.20;60.70
46890;DHT22;32625;51.080;16.970;2023-05-10T11:08:15;19.30;61.60
46890;DHT22;32625;51.080;16.970;2023-05-10T11:11:05;19.40;61.20
46890;DHT22;32625;51.080;16.970;2023-05-10T11:16:14;19.70;62.00
46890;DHT22;32625;51.080;16.970;2023-05-10T11:21:25;19.80;60.30
46890;DHT22;32625;51.080;16.970;2023-05-10T11:23:54;19.80;60.20
46890;DHT22;32625;51.080;16.970;2023-05-10T11:26:30;19.90;59.00
46890;DHT22;32625;51.080;16.970;2023-05-10T11:28:58;19.80;58.40
46890;DHT22;32625;51.080;16.970;2023-05-10T11:31:28;19.70;58.90
46890;DHT22;32625;51.080;16.970;2023-05-10T11:33:57;19.70;59.20
46890;DHT22;32625;51.080;16.970;2023-05-10T11:36:29;19.60;59.70
46890;DHT22;32625;51.080;16.970;2023-05-10T11:38:59;19.50;59.40
46890;DHT22;32625;51.080;16.970;2023-05-10T11:41:29;19.80;59.00
46890;DHT22;32625;51.080;16.970;2023-05-10T11:43:57;20.20;58.70
46890;DHT22;32625;51.080;16.970;2023-05-10T11:46:27;20.30;56.70
46890;DHT22;32625;51.080;16.970;2023-05-10T11:49:00;20.40;56.10
46890;DHT22;32625;51.080;16.970;2023-05-10T11:51:28;20.10;55.30
46890;DHT22;32625;51.080;16.970;2023-05-10T11:53:57;19.80;55.20
46890;DHT22;32625;51.080;16.970;2023-05-10T11:56:24;19.90;55.40
46890;DHT22;32625;51.080;16.970;2023-05-10T11:58:57;19.90;55.40
46890;DHT22;32625;51.080;16.970;2023-05-10T12:01:25;20.00;55.00
46890;DHT22;32625;51.080;16.970;2023-05-10T12:03:55;19.80;54.80
46890;DHT22;32625;51.080;16.970;2023-05-10T12:06:31;19.80;54.80
46890;DHT22;32625;51.080;16.970;2023-05-10T12:08:59;19.90;55.90
46890;DHT22;32625;51.080;16.970;2023-05-10T12:11:28;19.90;55.70
46890;DHT22;32625;51.080;16.970;2023-05-10T12:13:55;20.00;55.00
46890;DHT22;32625;51.080;16.970;2023-05-10T12:16:25;19.90;55.80
46890;DHT22;32625;51.080;16.970;2023-05-10T12:18:55;19.80;55.80
46890;DHT22;32625;51.080;16.970;2023-05-10T12:21:23;19.80;55.50
46890;DHT22;32625;51.080;16.970;2023-05-10T12:23:53;19.70;55.30
46890;DHT22;32625;51.080;16.970;2023-05-10T12:26:24;19.60;57.30
46890;DHT22;32625;51.080;16.970;2023-05-10T12:28:54;19.70;55.30
46890;DHT22;32625;51.080;16.970;2023-05-10T12:31:26;19.70;56.30
46890;DHT22;32625;51.080;16.970;2023-05-10T12:33:56;19.90;57.90
46890;DHT22;32625;51.080;16.970;2023-05-10T12:36:23;20.30;55.80
46890;DHT22;32625;51.080;16.970;2023-05-10T12:38:59;20.20;54.50
46890;DHT22;32625;51.080;16.970;2023-05-10T12:41:28;20.10;55.40
46890;DHT22;32625;51.080;16.970;2023-05-10T12:43:57;20.30;54.70
46890;DHT22;32625;51.080;16.970;2023-05-10T12:46:24;20.30;54.10
46890;DHT22;32625;51.080;16.970;2023-05-10T12:48:54;20.00;53.60
46890;DHT22;32625;51.080;16.970;2023-05-10T12:51:34;19.10;54.90
46890;DHT22;32625;51.080;16.970;2023-05-10T12:54:02;20.10;54.90
46890;DHT22;32625;51.080;16.970;2023-05-10T12:56:30;20.30;54.40
46890;DHT22;32625;51.080;16.970;2023-05-10T12:58:57;20.40;53.90
46890;DHT22;32625;51.080;16.970;2023-05-10T13:01:24;20.20;53.00
46890;DHT22;32625;51.080;16.970;2023-05-10T13:03:52;20.40;53.00
46890;DHT22;32625;51.080;16.970;2023-05-10T13:06:19;20.20;52.20
46890;DHT22;32625;51.080;16.970;2023-05-10T13:08:48;20.20;54.20
46890;DHT22;32625;51.080;16.970;2023-05-10T13:11:17;20.60;53.30
46890;DHT22;32625;51.080;16.970;2023-05-10T13:13:48;20.60;53.30
46890;DHT22;32625;51.080;16.970;2023-05-10T13:16:30;21.40;52.70
46890;DHT22;32625;51.080;16.970;2023-05-10T13:18:57;21.70;53.00
46890;DHT22;32625;51.080;16.970;2023-05-10T13:21:28;21.10;52.60
46890;DHT22;32625;51.080;16.970;2023-05-10T13:23:55;20.90;53.20
46890;DHT22;32625;51.080;16.970;2023-05-10T13:26:23;20.60;52.10
46890;DHT22;32625;51.080;16.970;2023-05-10T13:28:52;20.40;53.20
46890;DHT22;32625;51.080;16.970;2023-05-10T13:31:19;20.50;56.40
46890;DHT22;32625;51.080;16.970;2023-05-10T13:33:55;20.70;53.20
46890;DHT22;32625;51.080;16.970;2023-05-10T13:36:22;21.10;52.50
46890;DHT22;32625;51.080;16.970;2023-05-10T13:38:49;21.40;52.20
46890;DHT22;32625;51.080;16.970;2023-05-10T13:44:59;21.40;51.10
46890;DHT22;32625;51.080;16.970;2023-05-10T13:47:26;21.00;50.70
46890;DHT22;32625;51.080;16.970;2023-05-10T13:49:54;20.80;51.20
46890;DHT22;32625;51.080;16.970;2023-05-10T13:52:21;21.00;50.90
46890;DHT22;32625;51.080;16.970;2023-05-10T13:54:48;21.20;50.80
46890;DHT22;32625;51.080;16.970;2023-05-10T13:57:15;21.30;51.00
46890;DHT22;32625;51.080;16.970;2023-05-10T13:59:43;21.10;50.70
46890;DHT22;32625;51.080;16.970;2023-05-10T14:02:20;21.00;51.90
46890;DHT22;32625;51.080;16.970;2023-05-10T14:04:47;21.00;50.80
46890;DHT22;32625;51.080;16.970;2023-05-10T14:07:15;21.00;51.10
46890;DHT22;32625;51.080;16.970;2023-05-10T14:09:54;21.50;50.20
46890;DHT22;32625;51.080;16.970;2023-05-10T14:12:21;21.30;49.70
46890;DHT22;32625;51.080;16.970;2023-05-10T14:14:48;21.00;50.40
46890;DHT22;32625;51.080;16.970;2023-05-10T14:17:15;19.60;50.10
46890;DHT22;32625;51.080;16.970;2023-05-10T14:19:42;20.50;51.70
46890;DHT22;32625;51.080;16.970;2023-05-10T14:22:11;20.40;52.80
46890;DHT22;32625;51.080;16.970;2023-05-10T14:24:38;20.30;52.60
46890;DHT22;32625;51.080;16.970;2023-05-10T14:27:05;20.30;53.60
46890;DHT22;32625;51.080;16.970;2023-05-10T14:29:32;20.40;52.70
46890;DHT22;32625;51.080;16.970;2023-05-10T14:31:59;20.60;52.30
46890;DHT22;32625;51.080;16.970;2023-05-10T14:34:27;20.50;51.20
46890;DHT22;32625;51.080;16.970;2023-05-10T14:36:54;20.40;51.60
46890;DHT22;32625;51.080;16.970;2023-05-10T14:39:22;20.50;53.40
46890;DHT22;32625;51.080;16.970;2023-05-10T14:41:59;20.60;51.60
46890;DHT22;32625;51.080;16.970;2023-05-10T14:44:34;20.60;50.30
46890;DHT22;32625;51.080;16.970;2023-05-10T14:47:12;20.70;51.70
46890;DHT22;32625;51.080;16.970;2023-05-10T14:49:45;20.50;51.30
46890;DHT22;32625;51.080;16.970;2023-05-10T14:52:20;20.40;52.10
46890;DHT22;32625;51.080;16.970;2023-05-10T14:54:49;20.40;53.20
46890;DHT22;32625;51.080;16.970;2023-05-10T14:57:24;20.40;52.00
46890;DHT22;32625;51.080;16.970;2023-05-10T15:00:17;20.60;51.50
46890;DHT22;32625;51.080;16.970;2023-05-10T15:03:07;20.30;53.60
46890;DHT22;32625;51.080;16.970;2023-05-10T15:05:38;20.20;54.20
46890;DHT22;32625;51.080;16.970;2023-05-10T15:08:44;20.20;54.20
46890;DHT22;32625;51.080;16.970;2023-05-10T15:11:24;19.80;52.10
46890;DHT22;32625;51.080;16.970;2023-05-10T15:13:56;20.30;53.60
46890;DHT22;32625;51.080;16.970;2023-05-10T15:16:45;20.40;52.10
46890;DHT22;32625;51.080;16.970;2023-05-10T15:19:12;20.30;51.90
46890;DHT22;32625;51.080;16.970;2023-05-10T15:21:47;20.30;53.10
46890;DHT22;32625;51.080;16.970;2023-05-10T15:24:31;20.50;53.20
46890;DHT22;32625;51.080;16.970;2023-05-10T15:27:59;20.30;56.80
46890;DHT22;32625;51.080;16.970;2023-05-10T15:31:20;19.50;51.40
46890;DHT22;32625;51.080;16.970;2023-05-10T15:34:14;20.60;52.50
46890;DHT22;32625;51.080;16.970;2023-05-10T15:36:59;20.60;52.40
46890;DHT22;32625;51.080;16.970;2023-05-10T15:39:49;20.60;51.80
46890;DHT22;32625;51.080;16.970;2023-05-10T15:42:24;20.40;52.30
46890;DHT22;32625;51.080;16.970;2023-05-10T15:45:34;20.30;52.10
46890;DHT22;32625;51.080;16.970;2023-05-10T15:48:49;20.10;52.90
46890;DHT22;32625;51.080;16.970;2023-05-10T15:51:31;19.20;51.10
46890;DHT22;32625;51.080;16.970;2023-05-10T15:54:03;19.80;53.80
46890;DHT22;32625;51.080;16.970;2023-05-10T15:56:34;19.70;53.50
46890;DHT22;32625;51.080;16.970;2023-05-10T15:59:03;19.70;52.80
46890;DHT22;32625;51.080;16.970;2023-05-10T16:01:41;19.30;55.60
46890;DHT22;32625;51.080;16.970;2023-05-10T16:04:16;19.40;53.90
46890;DHT22;32625;51.080;16.970;2023-05-10T16:06:46;19.40;53.30
46890;DHT22;32625;51.080;16.970;2023-05-10T16:09:15;19.30;53.50
46890;DHT22;32625;51.080;16.970;2023-05-10T16:11:46;19.30;54.40
46890;DHT22;32625;51.080;16.970;2023-05-10T16:14:16;19.40;53.20
46890;DHT22;32625;51.080;16.970;2023-05-10T16:16:47;19.00;53.50